Time;durP1;ratioP1;P1;durP2;ratioP2;P2;SDS_P1;SDS_P2;PMS_P1;PMS_P2;Temp;Humidity;BMP_temperature;BMP_pressure;BME280_temperature;BME280_humidity;BME280_pressure;Samples;Min_cycle;Max_cycle;Signal;HPM_P1;HPM_P2
2023/06/21 00:00:37;;;;;;;11.20;10.20;;;22.20;37.80;;;;;;5096202;28;20426;-49
2023/06/21 00:03:04;;;;;;;11.20;10.20;;;22.10;81.30;;;;;;5096191;28;20246;-49
2023/06/21 00:05:30;;;;;;;11.23;10.33;;;22.10;89.10;;;;;;5095951;28;20182;-49
2023/06/21 00:07:56;;;;;;;11.20;10.20;;;22.10;1.00;;;;;;5077608;28;20426;-50
2023/06/21 00:10:23;;;;;;;12.57;10.77;;;22.10;1.00;;;;;;5095175;28;20639;-52
2023/06/21 00:12:55;;;;;;;11.50;10.40;;;22.10;99.90;;;;;;5094832;28;20233;-49
2023/06/21 00:15:21;;;;;;;12.10;10.83;;;22.10;99.90;;;;;;5061488;28;20446;-49
2023/06/21 00:17:47;;;;;;;11.63;10.63;;;22.10;40.40;;;;;;5095328;28;20805;-50
2023/06/21 00:20:13;;;;;;;12.47;11.27;;;22.10;99.90;;;;;;5077129;28;20617;-53
2023/06/21 00:22:39;;;;;;;14.53;11.40;;;22.10;99.90;;;;;;5094592;28;20572;-50
2023/06/21 00:25:06;;;;;;;12.13;10.93;;;22.10;1.00;;;;;;5092754;28;20191;-51
2023/06/21 00:27:32;;;;;;;11.53;10.63;;;22.10;1.00;;;;;;5076111;28;20484;-48
2023/06/21 00:29:57;;;;;;;13.77;12.13;;;22.00;1.00;;;;;;5075513;28;20564;-50
2023/06/21 00:32:23;;;;;;;16.50;11.67;;;22.00;1.00;;;;;;5092302;28;20207;-51
2023/06/21 00:34:49;;;;;;;12.67;11.47;;;22.00;1.00;;;;;;5084092;28;20671;-54
2023/06/21 00:37:14;;;;;;;13.10;11.80;;;22.00;62.90;;;;;;5077079;28;20196;-51
2023/06/21 00:39:40;;;;;;;12.30;11.20;;;22.00;1.00;;;;;;5076370;28;20188;-50
2023/06/21 00:42:07;;;;;;;11.73;10.80;;;22.00;99.90;;;;;;5087719;28;20230;-50
2023/06/21 00:44:32;;;;;;;12.20;11.00;;;21.90;99.90;;;;;;5097021;28;20176;-51
2023/06/21 00:46:58;;;;;;;13.07;11.93;;;21.90;99.90;;;;;;5097836;28;20452;-51
2023/06/21 00:49:23;;;;;;;13.07;11.77;;;21.90;99.90;;;;;;5096353;28;20227;-51
2023/06/21 00:51:53;;;;;;;12.60;11.40;;;21.80;99.90;;;;;;5095883;28;20565;-49
2023/06/21 00:54:19;;;;;;;12.90;11.70;;;21.80;99.90;;;;;;5078380;28;20185;-51
2023/06/21 00:56:45;;;;;;;12.80;11.70;;;21.80;1.00;;;;;;5079614;28;20414;-51
2023/06/21 00:59:11;;;;;;;12.70;11.57;;;21.80;1.00;;;;;;5062620;28;20482;-49
2023/06/21 01:01:37;;;;;;;11.90;10.90;;;21.70;1.00;;;;;;5096976;28;20430;-50
2023/06/21 01:04:04;;;;;;;13.50;12.17;;;21.80;1.00;;;;;;5097814;28;20438;-51
2023/06/21 01:07:11;;;;;;;12.87;11.77;;;21.80;1.00;;;;;;5097602;28;20453;-51
2023/06/21 01:09:57;;;;;;;13.67;12.50;;;21.70;1.00;;;;;;5098020;28;20437;-49
2023/06/21 01:12:49;;;;;;;13.43;12.07;;;21.70;1.00;;;;;;5099236;28;20433;-51
2023/06/21 01:15:27;;;;;;;13.43;11.57;;;21.70;1.00;;;;;;5080816;28;20410;-52
2023/06/21 01:17:53;;;;;;;12.90;11.67;;;21.60;99.90;;;;;;5081666;28;20467;-48
2023/06/21 01:20:25;;;;;;;12.80;11.70;;;21.60;99.90;;;;;;5099026;28;20529;-47
2023/06/21 01:23:12;;;;;;;13.33;11.97;;;21.60;99.90;;;;;;5081235;28;20516;-51
2023/06/21 01:25:58;;;;;;;12.57;11.37;;;21.60;99.90;;;;;;5099388;28;20544;-50
2023/06/21 01:28:45;;;;;;;12.60;11.40;;;21.50;99.90;;;;;;5081481;28;20434;-51
2023/06/21 01:31:16;;;;;;;13.77;12.50;;;21.50;1.00;;;;;;5098875;28;20429;-49
2023/06/21 01:33:42;;;;;;;13.00;11.90;;;21.40;99.90;;;;;;5080635;28;20521;-49
2023/06/21 01:36:12;;;;;;;13.50;12.30;;;21.40;1.00;;;;;;5081005;28;20419;-50
2023/06/21 01:38:37;;;;;;;13.50;12.20;;;21.40;1.00;;;;;;5080768;28;20495;-48
2023/06/21 01:41:03;;;;;;;12.90;11.87;;;21.40;1.00;;;;;;5098886;28;20442;-50
2023/06/21 01:43:30;;;;;;;14.27;12.70;;;21.30;1.00;;;;;;5080540;28;20349;-51
2023/06/21 01:45:58;;;;;;;12.90;11.80;;;21.30;1.00;;;;;;5097822;28;20505;-52
2023/06/21 01:48:23;;;;;;;12.60;11.50;;;21.30;1.00;;;;;;5098114;28;20506;-51
2023/06/21 01:50:50;;;;;;;13.00;11.90;;;21.30;1.00;;;;;;5078729;28;20434;-49
2023/06/21 01:53:17;;;;;;;11.90;10.90;;;21.30;1.00;;;;;;5079022;28;20220;-51
2023/06/21 01:55:48;;;;;;;12.90;11.80;;;21.30;1.00;;;;;;5079270;28;20696;-49
2023/06/21 01:58:16;;;;;;;13.93;12.73;;;21.40;1.00;;;;;;5096331;28;20458;-48
2023/06/21 02:00:41;;;;;;;12.40;11.30;;;21.40;1.00;;;;;;5080514;28;20421;-50
2023/06/21 02:03:09;;;;;;;12.87;11.67;;;21.40;1.00;;;;;;5079763;28;20430;-51
2023/06/21 02:05:35;;;;;;;14.37;12.80;;;21.30;1.00;;;;;;5080859;28;20426;-48
2023/06/21 02:08:04;;;;;;;12.93;11.77;;;21.30;1.00;;;;;;5080362;28;20438;-51
2023/06/21 02:10:30;;;;;;;13.33;12.33;;;21.30;1.00;;;;;;5080078;28;20275;-50
2023/06/21 02:12:56;;;;;;;12.70;11.70;;;21.30;1.00;;;;;;5080670;28;20820;-49
2023/06/21 02:15:23;;;;;;;13.47;12.37;;;21.30;1.00;;;;;;5080474;28;20466;-47
2023/06/21 02:17:49;;;;;;;14.00;12.60;;;21.30;1.00;;;;;;5097082;28;20817;-51
2023/06/21 02:20:19;;;;;;;13.90;12.70;;;21.30;1.00;;;;;;5097573;28;20642;-50
2023/06/21 02:22:46;;;;;;;12.07;11.17;;;21.20;1.00;;;;;;5080058;28;20454;-50
2023/06/21 02:25:12;;;;;;;15.43;12.77;;;21.20;1.00;;;;;;5097077;28;20453;-48
2023/06/21 02:27:38;;;;;;;13.40;12.10;;;21.20;1.00;;;;;;5097555;28;20414;-49
2023/06/21 02:30:05;;;;;;;14.30;12.80;;;21.20;1.00;;;;;;5079912;28;20711;-51
2023/06/21 02:32:31;;;;;;;13.60;12.47;;;21.20;98.40;;;;;;5096613;28;20188;-50
2023/06/21 02:34:57;;;;;;;13.67;12.57;;;21.10;99.90;;;;;;5096483;28;20708;-48
2023/06/21 02:37:22;;;;;;;12.90;11.60;;;21.10;99.90;;;;;;5078921;28;20555;-50
2023/06/21 02:39:48;;;;;;;13.77;12.57;;;21.10;99.90;;;;;;5095770;28;20196;-48
2023/06/21 02:42:14;;;;;;;13.53;12.43;;;21.10;99.90;;;;;;5096522;28;20265;-48
2023/06/21 02:44:41;;;;;;;14.93;12.40;;;21.00;99.90;;;;;;5096181;28;20613;-50
2023/06/21 02:47:07;;;;;;;14.27;13.00;;;21.00;99.90;;;;;;5096998;28;20823;-51
2023/06/21 02:49:36;;;;;;;13.50;12.23;;;21.00;99.90;;;;;;5097373;28;20445;-49
2023/06/21 02:52:02;;;;;;;12.77;11.77;;;21.00;99.90;;;;;;5080158;28;20800;-52
2023/06/21 02:54:28;;;;;;;13.77;12.37;;;21.00;99.90;;;;;;5097028;28;20483;-50
2023/06/21 02:56:54;;;;;;;13.80;12.70;;;21.00;99.90;;;;;;5097507;28;20438;-48
2023/06/21 02:59:20;;;;;;;12.03;10.93;;;21.00;99.90;;;;;;5096656;28;20481;-50
2023/06/21 03:01:47;;;;;;;13.27;12.17;;;21.10;99.90;;;;;;5097287;28;20177;-52
2023/06/21 03:04:16;;;;;;;15.43;14.13;;;21.00;99.90;;;;;;5097492;28;20191;-52
2023/06/21 03:06:41;;;;;;;14.57;13.37;;;21.00;99.90;;;;;;5095894;28;20418;-49
2023/06/21 03:09:07;;;;;;;13.93;12.77;;;20.90;99.90;;;;;;5095494;28;20538;-50
2023/06/21 03:11:33;;;;;;;14.60;13.20;;;20.80;99.90;;;;;;5095203;28;20494;-49
2023/06/21 03:13:58;;;;;;;12.57;11.67;;;20.60;1.00;;;;;;5093511;28;20619;-50
2023/06/21 03:16:24;;;;;;;14.33;12.63;;;20.60;1.00;;;;;;5095152;28;20495;-51
2023/06/21 03:18:50;;;;;;;14.63;13.33;;;20.60;8.50;;;;;;5095209;28;20214;-48
2023/06/21 03:21:16;;;;;;;12.87;11.77;;;20.60;1.00;;;;;;5095181;28;20186;-50
2023/06/21 03:23:41;;;;;;;14.10;12.80;;;20.70;1.00;;;;;;5097015;28;20832;-48
2023/06/21 03:26:07;;;;;;;13.90;12.70;;;20.80;1.00;;;;;;5096960;28;20562;-50
2023/06/21 03:28:33;;;;;;;13.73;12.43;;;20.80;1.00;;;;;;5096408;28;20192;-51
2023/06/21 03:30:58;;;;;;;13.57;12.47;;;20.90;1.00;;;;;;5096454;28;20241;-50
2023/06/21 03:33:24;;;;;;;13.43;12.43;;;20.90;1.00;;;;;;5078451;28;20175;-49
2023/06/21 03:35:50;;;;;;;17.80;13.33;;;20.90;1.00;;;;;;5095903;28;20180;-49
2023/06/21 03:38:17;;;;;;;16.40;14.63;;;20.80;1.00;;;;;;5096291;28;20227;-50
2023/06/21 03:40:43;;;;;;;15.40;14.10;;;20.60;99.90;;;;;;5095308;28;20271;-48
2023/06/21 03:43:09;;;;;;;15.33;14.03;;;20.50;99.90;;;;;;5077863;28;20545;-48
2023/06/21 03:45:35;;;;;;;14.77;13.37;;;20.40;99.90;;;;;;5095360;28;20839;-48
2023/06/21 03:48:04;;;;;;;14.97;12.53;;;20.40;99.90;;;;;;5095672;28;20253;-51
2023/06/21 03:50:30;;;;;;;14.73;13.43;;;20.30;99.90;;;;;;5094150;28;20256;-46
2023/06/21 03:52:55;;;;;;;15.40;14.00;;;20.20;1.00;;;;;;5093638;28;20716;-47
2023/06/21 03:55:24;;;;;;;13.80;12.40;;;20.20;1.00;;;;;;5092641;28;20449;-50
2023/06/21 03:57:50;;;;;;;14.43;12.93;;;20.20;1.00;;;;;;5094628;28;20211;-48
2023/06/21 04:00:17;;;;;;;13.07;12.03;;;20.30;1.00;;;;;;5093857;28;20427;-47
2023/06/21 04:02:44;;;;;;;13.57;12.30;;;20.40;1.00;;;;;;5094243;28;20469;-51
2023/06/21 04:05:10;;;;;;;13.67;12.37;;;20.60;1.00;;;;;;5094717;28;20426;-50
2023/06/21 04:07:39;;;;;;;13.77;12.10;;;20.70;99.90;;;;;;5093362;28;20925;-50
2023/06/21 04:10:05;;;;;;;13.57;12.13;;;20.70;99.90;;;;;;5094933;28;20471;-47
2023/06/21 04:12:31;;;;;;;13.57;12.47;;;20.80;99.90;;;;;;5095528;28;20556;-47
2023/06/21 04:15:00;;;;;;;13.97;12.57;;;20.90;99.90;;;;;;5094691;28;20866;-51
2023/06/21 04:17:27;;;;;;;14.50;10.83;;;20.90;99.90;;;;;;5094868;28;20429;-50
2023/06/21 04:19:53;;;;;;;12.70;11.60;;;20.90;99.90;;;;;;5093691;28;20429;-49
2023/06/21 04:22:21;;;;;;;12.23;11.13;;;21.00;99.90;;;;;;5093331;28;20427;-48
2023/06/21 04:24:46;;;;;;;12.30;11.20;;;21.00;59.80;;;;;;5094262;28;20506;-50
2023/06/21 04:27:12;;;;;;;12.77;11.67;;;21.00;1.00;;;;;;5092701;28;20472;-49
2023/06/21 04:29:40;;;;;;;12.30;11.00;;;21.10;1.00;;;;;;5092673;28;20183;-49
2023/06/21 04:32:06;;;;;;;12.63;11.40;;;21.10;1.00;;;;;;5094000;28;20192;-47
2023/06/21 04:34:33;;;;;;;12.40;11.20;;;21.20;1.00;;;;;;5092723;28;20437;-50
2023/06/21 04:36:58;;;;;;;12.13;10.93;;;21.20;1.00;;;;;;5093621;28;20425;-48
2023/06/21 04:39:24;;;;;;;12.83;11.70;;;21.30;1.00;;;;;;5094436;28;20853;-48
2023/06/21 04:41:52;;;;;;;12.20;11.17;;;21.40;1.00;;;;;;5094194;28;20168;-51
2023/06/21 04:44:18;;;;;;;11.60;10.60;;;21.50;99.90;;;;;;5093075;28;20212;-47
2023/06/21 04:46:46;;;;;;;12.70;11.50;;;21.50;1.00;;;;;;5092477;28;20438;-48
2023/06/21 04:49:12;;;;;;;12.63;10.40;;;21.60;1.00;;;;;;5093101;28;20411;-49
2023/06/21 04:51:38;;;;;;;12.17;11.10;;;21.70;99.90;;;;;;5090246;28;20415;-49
2023/06/21 04:54:03;;;;;;;12.37;11.30;;;21.90;99.90;;;;;;5086625;28;20189;-49
2023/06/21 04:56:29;;;;;;;11.97;10.97;;;22.00;99.90;;;;;;5083650;28;20197;-47
2023/06/21 04:58:55;;;;;;;11.73;10.63;;;22.10;88.50;;;;;;5072996;28;20303;-50
2023/06/21 05:01:21;;;;;;;11.57;10.57;;;22.10;99.90;;;;;;5070643;28;20261;-54
2023/06/21 05:03:48;;;;;;;12.43;11.43;;;22.20;23.80;;;;;;5072599;28;20419;-51
2023/06/21 05:06:20;;;;;;;12.00;10.80;;;22.20;1.00;;;;;;5070382;28;20238;-52
2023/06/21 05:08:46;;;;;;;10.87;9.97;;;22.20;1.00;;;;;;5070308;28;20522;-50
2023/06/21 05:11:11;;;;;;;10.83;9.83;;;22.20;1.00;;;;;;5032557;28;20594;-49
2023/06/21 05:13:37;;;;;;;11.40;10.20;;;22.10;1.00;;;;;;5067004;28;20423;-48
2023/06/21 05:16:03;;;;;;;10.20;8.90;;;22.10;99.90;;;;;;5070405;28;20432;-52
2023/06/21 05:18:28;;;;;;;10.80;9.70;;;22.10;99.90;;;;;;5070678;28;20606;-51
2023/06/21 05:20:55;;;;;;;11.23;9.73;;;22.10;99.90;;;;;;5071933;28;20256;-48
2023/06/21 05:23:21;;;;;;;10.30;9.40;;;22.20;99.90;;;;;;5073465;28;20173;-53
2023/06/21 05:25:46;;;;;;;9.93;8.93;;;22.30;43.60;;;;;;5074561;28;20465;-48
2023/06/21 05:28:12;;;;;;;11.53;10.50;;;22.50;1.00;;;;;;5072973;28;20165;-52
2023/06/21 05:30:37;;;;;;;11.60;10.40;;;22.60;23.20;;;;;;5072989;28;20189;-50
2023/06/21 05:33:03;;;;;;;10.57;9.60;;;22.60;99.90;;;;;;5071546;28;20185;-49
2023/06/21 05:35:29;;;;;;;10.90;9.93;;;22.60;99.90;;;;;;5072156;28;20303;-50
2023/06/21 05:37:54;;;;;;;11.53;10.57;;;22.60;84.40;;;;;;5071268;28;20216;-50
2023/06/21 05:40:20;;;;;;;11.10;10.00;;;22.60;1.00;;;;;;5053634;28;20173;-49
2023/06/21 05:42:46;;;;;;;11.20;10.10;;;22.60;99.90;;;;;;5071587;28;20553;-50
2023/06/21 05:45:12;;;;;;;11.40;10.43;;;22.70;99.90;;;;;;5038675;28;20523;-53
2023/06/21 05:47:38;;;;;;;12.23;11.13;;;22.70;38.90;;;;;;5072380;28;20177;-52
2023/06/21 05:50:03;;;;;;;11.57;10.43;;;22.90;1.00;;;;;;5070793;28;20228;-50
2023/06/21 05:52:30;;;;;;;10.77;9.87;;;22.90;1.00;;;;;;5069644;28;20458;-48
2023/06/21 05:54:55;;;;;;;11.37;10.43;;;23.00;6.70;;;;;;5070898;28;20473;-51
2023/06/21 05:57:21;;;;;;;13.30;11.10;;;23.20;28.10;;;;;;5073714;28;20415;-51
2023/06/21 05:59:47;;;;;;;13.77;12.47;;;23.20;99.90;;;;;;5052382;28;20205;-51
2023/06/21 06:02:13;;;;;;;11.47;10.37;;;23.10;1.00;;;;;;5068415;28;20422;-51
2023/06/21 06:04:39;;;;;;;14.53;13.20;;;22.90;99.90;;;;;;5070950;28;20193;-49
2023/06/21 06:07:05;;;;;;;12.27;11.10;;;22.80;99.90;;;;;;5054927;28;20165;-51
2023/06/21 06:09:31;;;;;;;12.33;10.97;;;22.70;99.90;;;;;;5072595;28;20184;-50
2023/06/21 06:11:57;;;;;;;12.17;11.07;;;22.60;99.90;;;;;;5074140;28;20707;-49
2023/06/21 06:14:26;;;;;;;13.50;12.03;;;22.60;1.00;;;;;;5074688;28;20250;-50
2023/06/21 06:16:51;;;;;;;12.13;11.10;;;22.70;99.90;;;;;;5076641;28;20557;-49
2023/06/21 06:19:17;;;;;;;12.30;11.00;;;22.80;99.90;;;;;;5058558;28;20549;-50
2023/06/21 06:21:43;;;;;;;11.57;10.53;;;23.00;43.50;;;;;;5076535;28;20261;-50
2023/06/21 06:24:09;;;;;;;11.23;10.23;;;23.20;55.90;;;;;;5077227;28;20393;-49
2023/06/21 06:26:34;;;;;;;11.43;10.43;;;23.60;1.00;;;;;;5073821;28;20749;-50
2023/06/21 06:29:00;;;;;;;12.13;11.17;;;23.90;99.90;;;;;;5052958;28;20177;-49
2023/06/21 06:31:28;;;;;;;12.37;11.17;;;24.10;99.90;;;;;;5072148;28;20185;-49
2023/06/21 06:33:54;;;;;;;10.63;9.73;;;24.30;1.00;;;;;;5071621;28;20544;-49
2023/06/21 06:36:20;;;;;;;11.50;10.53;;;24.40;1.00;;;;;;5076267;28;20537;-50
2023/06/21 06:38:47;;;;;;;12.93;10.73;;;24.70;1.00;;;;;;5094525;28;20200;-51
2023/06/21 06:41:12;;;;;;;13.00;11.73;;;24.70;99.90;;;;;;5095120;28;20511;-50
2023/06/21 06:43:38;;;;;;;11.33;10.43;;;24.90;99.90;;;;;;5092128;28;20477;-55
2023/06/21 06:46:04;;;;;;;11.67;10.67;;;25.00;99.90;;;;;;5091622;28;20192;-50
2023/06/21 06:48:29;;;;;;;12.73;11.43;;;25.10;99.90;;;;;;5093694;28;20533;-53
2023/06/21 06:50:55;;;;;;;11.03;10.23;;;25.40;5.80;;;;;;5091632;28;20238;-40
2023/06/21 06:53:20;;;;;;;10.67;9.77;;;25.60;1.00;;;;;;5091980;28;20546;-41
2023/06/21 06:55:46;;;;;;;8.90;8.17;;;25.60;1.00;;;;;;5091970;28;20197;-41
2023/06/21 06:58:12;;;;;;;9.13;8.20;;;25.70;1.00;;;;;;5093594;28;20207;-41
2023/06/21 07:00:38;;;;;;;9.53;8.60;;;25.70;99.90;;;;;;5092782;28;20259;-41
2023/06/21 07:03:04;;;;;;;9.77;8.90;;;25.60;99.90;;;;;;5092504;28;21173;-41
2023/06/21 07:05:30;;;;;;;8.50;7.80;;;25.60;99.90;;;;;;5074228;28;20549;-44
2023/06/21 07:07:55;;;;;;;9.07;8.13;;;25.80;99.90;;;;;;5092724;28;20459;-40
2023/06/21 07:10:21;;;;;;;9.33;7.93;;;25.90;99.90;;;;;;5093814;28;20447;-41
2023/06/21 07:12:47;;;;;;;9.50;8.60;;;26.00;99.90;;;;;;5075847;28;20547;-42
2023/06/21 07:15:12;;;;;;;10.40;9.50;;;26.00;99.90;;;;;;5095104;28;20422;-41
2023/06/21 07:17:38;;;;;;;9.87;8.97;;;25.80;99.90;;;;;;5095906;28;20203;-42
2023/06/21 07:20:08;;;;;;;8.90;8.20;;;25.70;99.90;;;;;;5097101;28;20164;-40
2023/06/21 07:22:33;;;;;;;8.90;8.20;;;25.60;99.90;;;;;;5097113;28;20184;-43
2023/06/21 07:25:01;;;;;;;8.00;7.40;;;25.80;99.90;;;;;;5065881;28;20449;-41
2023/06/21 07:27:30;;;;;;;10.30;9.37;;;25.90;99.90;;;;;;5057778;28;20165;-44
2023/06/21 07:29:56;;;;;;;9.33;8.60;;;26.20;99.90;;;;;;5073669;28;20420;-40
2023/06/21 07:32:21;;;;;;;9.70;8.90;;;26.30;93.10;;;;;;5072908;28;20430;-39
2023/06/21 07:34:48;;;;;;;9.07;8.27;;;26.20;83.60;;;;;;5074545;28;20173;-42
2023/06/21 07:37:14;;;;;;;8.87;8.07;;;25.90;85.50;;;;;;5075629;28;20169;-39
2023/06/21 07:39:39;;;;;;;11.07;8.83;;;25.80;98.20;;;;;;5056774;28;20528;-42
2023/06/21 07:42:07;;;;;;;9.43;8.40;;;25.70;99.90;;;;;;5074849;28;20226;-46
2023/06/21 07:44:33;;;;;;;9.93;9.00;;;25.70;99.90;;;;;;5072955;28;20302;-40
2023/06/21 07:46:59;;;;;;;9.83;8.93;;;25.60;53.10;;;;;;5075314;28;20817;-45
2023/06/21 07:49:24;;;;;;;9.00;8.07;;;25.40;50.10;;;;;;5074549;28;20191;-44
2023/06/21 07:51:50;;;;;;;9.03;8.23;;;25.60;62.90;;;;;;5074520;28;20505;-46
2023/06/21 07:54:17;;;;;;;11.13;9.93;;;25.60;83.70;;;;;;5073540;28;20349;-43
2023/06/21 07:56:42;;;;;;;9.70;8.80;;;25.50;99.90;;;;;;5075800;28;20543;-43
2023/06/21 07:59:08;;;;;;;9.90;9.03;;;25.40;99.90;;;;;;5040256;28;20536;-42
2023/06/21 08:01:35;;;;;;;7.83;7.13;;;24.90;99.90;;;;;;5074988;28;20789;-42
2023/06/21 08:04:01;;;;;;;9.57;8.57;;;24.80;99.90;;;;;;5056329;28;20565;-41
2023/06/21 08:06:27;;;;;;;10.27;8.47;;;24.70;99.90;;;;;;5074343;28;20408;-43
2023/06/21 08:08:53;;;;;;;8.60;7.80;;;24.70;99.90;;;;;;5056489;28;20431;-42
2023/06/21 08:11:18;;;;;;;9.23;8.37;;;24.60;99.90;;;;;;5056769;28;20441;-43
2023/06/21 08:13:44;;;;;;;9.90;7.70;;;24.50;99.90;;;;;;5058187;28;20248;-43
2023/06/21 08:16:10;;;;;;;8.47;7.57;;;24.50;99.90;;;;;;5075683;28;20245;-43
2023/06/21 08:18:36;;;;;;;8.70;7.83;;;24.30;99.90;;;;;;5076569;28;20205;-42
2023/06/21 08:21:03;;;;;;;8.47;7.77;;;24.00;99.90;;;;;;5074173;28;20177;-42
2023/06/21 08:23:29;;;;;;;9.07;8.20;;;23.60;99.90;;;;;;5072417;28;20280;-42
2023/06/21 08:25:54;;;;;;;14.23;9.20;;;23.50;99.90;;;;;;5074906;28;20503;-44
2023/06/21 08:28:21;;;;;;;9.17;8.27;;;23.40;1.00;;;;;;5072640;28;20337;-41
2023/06/21 08:30:46;;;;;;;12.00;9.77;;;23.40;1.00;;;;;;5075085;28;20204;-43
2023/06/21 08:33:13;;;;;;;8.87;7.97;;;23.30;1.00;;;;;;5056339;28;20450;-43
2023/06/21 08:35:38;;;;;;;11.00;9.10;;;23.20;1.00;;;;;;5072355;28;20439;-43
2023/06/21 08:38:04;;;;;;;10.07;8.30;;;23.20;1.00;;;;;;5071741;28;20208;-43
2023/06/21 08:40:31;;;;;;;10.00;8.10;;;23.00;99.90;;;;;;5073108;28;20185;-42
2023/06/21 08:42:57;;;;;;;8.33;7.53;;;22.80;1.00;;;;;;5074579;28;20220;-43
2023/06/21 08:45:23;;;;;;;8.13;7.43;;;22.60;1.00;;;;;;5056124;28;20893;-41
2023/06/21 08:47:53;;;;;;;9.77;7.70;;;22.50;19.60;;;;;;5075137;28;20529;-42
2023/06/21 08:50:20;;;;;;;9.17;8.33;;;22.40;99.90;;;;;;5074342;28;20423;-42
2023/06/21 08:52:48;;;;;;;8.87;7.97;;;22.20;1.00;;;;;;5073094;28;20465;-42
2023/06/21 08:55:14;;;;;;;10.23;9.23;;;22.10;99.90;;;;;;5053978;28;20411;-43
2023/06/21 08:57:57;;;;;;;12.87;9.70;;;22.00;78.00;;;;;;5075143;28;20423;-43
2023/06/21 09:00:33;;;;;;;12.43;9.50;;;21.90;1.00;;;;;;5059266;28;20549;-42
2023/06/21 09:03:20;;;;;;;10.77;9.87;;;21.70;99.90;;;;;;5057345;28;20734;-43
2023/06/21 09:05:48;;;;;;;12.17;10.90;;;21.60;1.00;;;;;;5073932;28;20411;-42
2023/06/21 09:08:14;;;;;;;11.90;10.80;;;21.40;7.20;;;;;;5056286;28;20835;-44
2023/06/21 09:10:41;;;;;;;13.07;11.03;;;21.30;99.90;;;;;;5060552;28;20434;-42
2023/06/21 09:13:07;;;;;;;12.47;11.37;;;21.30;1.00;;;;;;5060095;28;20686;-43
2023/06/21 09:15:32;;;;;;;12.20;10.93;;;21.30;1.00;;;;;;5077664;28;20422;-41
2023/06/21 09:17:58;;;;;;;14.07;12.67;;;21.30;1.00;;;;;;5078343;28;20524;-44
2023/06/21 09:20:28;;;;;;;13.53;12.10;;;21.20;1.00;;;;;;5059377;28;20326;-42
2023/06/21 09:22:57;;;;;;;18.53;14.70;;;21.10;49.20;;;;;;5077801;28;20423;-42
2023/06/21 09:25:23;;;;;;;16.30;13.00;;;21.00;99.90;;;;;;5060143;28;20423;-44
2023/06/21 09:27:48;;;;;;;15.73;14.10;;;20.90;99.90;;;;;;5060892;28;20453;-43
2023/06/21 09:30:15;;;;;;;14.23;12.73;;;20.90;99.90;;;;;;5077231;28;20262;-44
2023/06/21 09:32:41;;;;;;;15.40;12.73;;;20.80;99.90;;;;;;5057640;28;20184;-43
2023/06/21 09:35:07;;;;;;;14.60;13.30;;;20.80;99.90;;;;;;5078844;28;20423;-51
2023/06/21 09:37:35;;;;;;;13.87;12.47;;;20.80;99.90;;;;;;5041820;28;20435;-42
2023/06/21 09:40:01;;;;;;;15.57;14.13;;;20.80;99.90;;;;;;5076245;28;20424;-44
2023/06/21 09:42:27;;;;;;;16.97;14.50;;;20.70;99.90;;;;;;5076830;28;20426;-44
2023/06/21 09:44:53;;;;;;;14.73;13.13;;;20.70;99.90;;;;;;5074498;28;20432;-42
2023/06/21 09:47:19;;;;;;;18.10;14.80;;;20.50;99.90;;;;;;5056540;28;20932;-43
2023/06/21 09:49:46;;;;;;;16.97;14.90;;;20.50;99.90;;;;;;5040563;28;20521;-43
2023/06/21 09:52:17;;;;;;;15.57;13.47;;;20.40;99.90;;;;;;5059591;28;20749;-42
2023/06/21 09:54:46;;;;;;;17.23;14.70;;;20.30;1.00;;;;;;5059811;28;20428;-42
2023/06/21 09:57:12;;;;;;;14.70;13.30;;;20.20;1.00;;;;;;5075325;28;20431;-42
2023/06/21 09:59:39;;;;;;;14.63;13.23;;;20.20;1.00;;;;;;5076493;28;20482;-44
2023/06/21 10:02:07;;;;;;;18.50;15.37;;;20.10;1.00;;;;;;5059321;28;20177;-45
2023/06/21 10:04:40;;;;;;;14.73;13.40;;;20.10;1.00;;;;;;5075609;28;20544;-43
2023/06/21 10:07:06;;;;;;;15.63;14.13;;;20.10;1.00;;;;;;5054590;28;20395;-43
2023/06/21 10:09:36;;;;;;;14.10;12.60;;;20.10;1.00;;;;;;5072294;28;20439;-42
2023/06/21 10:12:03;;;;;;;15.00;13.50;;;20.00;1.00;;;;;;5074041;28;20173;-42
2023/06/21 10:14:30;;;;;;;14.90;13.53;;;20.00;1.00;;;;;;5074162;28;20438;-42
2023/06/21 10:17:00;;;;;;;13.97;12.77;;;19.90;1.00;;;;;;5076203;28;20436;-44
2023/06/21 10:19:32;;;;;;;14.70;13.37;;;19.90;1.00;;;;;;5057935;28;20471;-42
2023/06/21 10:22:04;;;;;;;15.50;13.90;;;20.00;1.00;;;;;;5058087;28;20518;-42
2023/06/21 10:24:35;;;;;;;12.37;11.27;;;20.10;1.00;;;;;;5075788;28;20403;-42
2023/06/21 10:27:05;;;;;;;14.30;12.17;;;20.00;99.90;;;;;;5075703;28;20462;-43
2023/06/21 10:29:32;;;;;;;13.17;11.93;;;20.20;99.90;;;;;;5074194;28;20768;-43
2023/06/21 10:32:00;;;;;;;11.90;10.70;;;20.40;99.90;;;;;;5074159;28;20427;-43
2023/06/21 10:34:29;;;;;;;12.70;11.13;;;20.60;99.90;;;;;;5074674;28;20492;-44
2023/06/21 10:37:02;;;;;;;13.03;11.70;;;20.70;99.90;;;;;;5056832;28;20430;-43
2023/06/21 10:39:31;;;;;;;12.27;11.23;;;20.90;99.90;;;;;;5055652;28;20742;-42
2023/06/21 10:41:57;;;;;;;12.60;10.20;;;21.00;99.90;;;;;;5054795;28;20431;-43
2023/06/21 10:44:23;;;;;;;11.90;10.90;;;21.10;99.90;;;;;;5053254;28;20502;-45
2023/06/21 10:46:49;;;;;;;12.20;11.10;;;21.30;99.90;;;;;;5052244;28;20447;-42
2023/06/21 10:49:15;;;;;;;13.97;12.67;;;21.40;18.30;;;;;;5052063;28;20412;-43
2023/06/21 10:51:41;;;;;;;13.33;11.77;;;21.40;26.50;;;;;;5052363;28;20731;-43
2023/06/21 10:54:07;;;;;;;13.57;12.23;;;21.50;40.90;;;;;;5054172;28;20195;-44
2023/06/21 10:56:33;;;;;;;13.37;11.97;;;21.60;13.30;;;;;;5051509;28;20818;-45
2023/06/21 10:58:59;;;;;;;16.30;12.70;;;21.70;1.00;;;;;;5052607;28;20817;-42
2023/06/21 11:01:24;;;;;;;12.37;11.37;;;21.90;1.00;;;;;;5053742;28;20431;-42
2023/06/21 11:03:50;;;;;;;13.00;11.70;;;22.00;1.00;;;;;;5053676;28;20257;-44
2023/06/21 11:06:33;;;;;;;13.57;12.40;;;22.30;1.00;;;;;;5053557;28;20213;-43
2023/06/21 11:09:10;;;;;;;12.70;11.60;;;22.50;99.90;;;;;;5052513;28;20532;-41
2023/06/21 11:11:37;;;;;;;12.90;11.70;;;22.70;99.90;;;;;;5053008;28;20679;-42
2023/06/21 11:14:05;;;;;;;15.20;12.90;;;23.00;1.00;;;;;;5054602;28;20430;-45
2023/06/21 11:16:36;;;;;;;13.50;11.97;;;22.90;77.20;;;;;;5052355;28;20436;-44
2023/06/21 11:19:13;;;;;;;13.20;12.10;;;23.20;99.90;;;;;;5052147;28;20463;-41
2023/06/21 11:21:45;;;;;;;11.90;10.77;;;23.60;99.90;;;;;;5051993;28;20500;-42
2023/06/21 11:24:21;;;;;;;13.30;12.20;;;23.70;1.00;;;;;;5052528;28;20439;-45
2023/06/21 11:26:53;;;;;;;13.20;11.97;;;24.10;1.00;;;;;;5052813;28;20431;-44
2023/06/21 11:29:19;;;;;;;11.80;10.70;;;24.70;1.00;;;;;;5051110;28;20734;-42
2023/06/21 11:31:45;;;;;;;12.43;11.23;;;25.20;83.70;;;;;;5052224;28;20467;-41
2023/06/21 11:34:24;;;;;;;12.17;11.17;;;25.60;1.00;;;;;;5051522;28;20447;-42
2023/06/21 11:36:50;;;;;;;12.10;11.00;;;25.80;1.00;;;;;;5051793;28;20166;-42
2023/06/21 11:39:16;;;;;;;12.30;11.10;;;26.20;1.00;;;;;;5051429;28;20482;-42
2023/06/21 11:41:45;;;;;;;12.90;11.70;;;26.70;1.00;;;;;;5051057;28;20798;-44
2023/06/21 11:44:14;;;;;;;12.17;10.90;;;27.40;99.90;;;;;;5065758;28;20224;-41
2023/06/21 11:46:40;;;;;;;10.60;9.70;;;27.60;1.00;;;;;;5072116;28;20538;-43
2023/06/21 11:49:06;;;;;;;11.70;10.67;;;28.30;99.90;;;;;;5071082;28;20716;-42
2023/06/21 11:51:32;;;;;;;10.80;9.70;;;29.00;99.90;;;;;;5054216;28;20584;-44
2023/06/21 11:53:58;;;;;;;9.37;8.57;;;29.20;99.90;;;;;;5072336;28;20464;-43
2023/06/21 11:56:31;;;;;;;8.73;7.70;;;29.70;1.00;;;;;;5073023;28;20490;-42
2023/06/21 11:58:58;;;;;;;11.20;10.13;;;29.70;1.00;;;;;;5093632;28;20469;-42
2023/06/21 12:01:24;;;;;;;9.90;9.10;;;29.90;1.00;;;;;;5090919;28;20726;-41
2023/06/21 12:03:57;;;;;;;9.87;8.87;;;30.10;1.00;;;;;;5089876;28;20799;-44
2023/06/21 12:06:22;;;;;;;10.73;9.93;;;30.40;1.00;;;;;;5089910;28;20478;-44
2023/06/21 12:08:49;;;;;;;10.63;9.50;;;30.80;1.00;;;;;;5089835;28;20409;-44
2023/06/21 12:11:18;;;;;;;11.03;10.13;;;30.80;1.00;;;;;;5073651;28;20194;-43
2023/06/21 12:13:43;;;;;;;9.33;8.50;;;31.40;1.00;;;;;;5090738;28;20434;-44
2023/06/21 12:16:09;;;;;;;9.80;8.90;;;31.60;1.00;;;;;;5089567;28;20864;-45
2023/06/21 12:18:36;;;;;;;9.40;8.60;;;30.60;1.00;;;;;;5091292;28;20211;-43
2023/06/21 12:21:04;;;;;;;9.30;8.50;;;30.30;1.00;;;;;;5090629;28;20330;-46
2023/06/21 12:23:30;;;;;;;9.13;8.40;;;30.40;1.00;;;;;;5092860;28;20408;-51
2023/06/21 12:26:06;;;;;;;9.70;8.90;;;30.70;1.00;;;;;;5093444;28;20401;-43
2023/06/21 12:28:33;;;;;;;10.83;9.27;;;31.20;1.00;;;;;;5076100;28;20418;-42
2023/06/21 12:31:01;;;;;;;10.37;9.40;;;31.10;1.00;;;;;;5096733;28;20841;-44
2023/06/21 12:33:39;;;;;;;9.57;8.77;;;31.00;1.00;;;;;;5098986;28;20498;-45
2023/06/21 12:36:18;;;;;;;8.57;7.87;;;31.00;1.00;;;;;;5096887;28;20401;-45